sensor_id;sensor_type;location;lat;lon;timestamp;temperature;humidity
71994;DHT22;59861;50.268;8.648;2023-04-01T00:00:56;16.80;56.40
71994;DHT22;59861;50.268;8.648;2023-04-01T00:03:24;16.80;56.40
71994;DHT22;59861;50.268;8.648;2023-04-01T00:05:53;16.80;56.40
71994;DHT22;59861;50.268;8.648;2023-04-01T00:08:20;16.80;56.40
71994;DHT22;59861;50.268;8.648;2023-04-01T00:10:47;16.80;56.40
71994;DHT22;59861;50.268;8.648;2023-04-01T00:13:13;16.80;56.40
71994;DHT22;59861;50.268;8.648;2023-04-01T00:15:41;16.80;56.40
71994;DHT22;59861;50.268;8.648;2023-04-01T00:18:08;16.70;56.30
71994;DHT22;59861;50.268;8.648;2023-04-01T00:20:35;16.70;56.30
71994;DHT22;59861;50.268;8.648;2023-04-01T00:23:02;16.70;56.30
71994;DHT22;59861;50.268;8.648;2023-04-01T00:25:30;16.70;56.30
71994;DHT22;59861;50.268;8.648;2023-04-01T00:27:57;16.70;56.30
71994;DHT22;59861;50.268;8.648;2023-04-01T00:30:24;16.70;56.30
71994;DHT22;59861;50.268;8.648;2023-04-01T00:32:51;16.70;56.30
71994;DHT22;59861;50.268;8.648;2023-04-01T00:35:19;16.70;57.00
71994;DHT22;59861;50.268;8.648;2023-04-01T00:37:45;16.70;57.00
71994;DHT22;59861;50.268;8.648;2023-04-01T00:40:24;16.70;56.30
71994;DHT22;59861;50.268;8.648;2023-04-01T00:42:47;16.70;56.30
71994;DHT22;59861;50.268;8.648;2023-04-01T00:45:25;16.70;56.30
71994;DHT22;59861;50.268;8.648;2023-04-01T00:47:51;16.70;56.90
71994;DHT22;59861;50.268;8.648;2023-04-01T00:50:19;16.70;56.30
71994;DHT22;59861;50.268;8.648;2023-04-01T00:52:46;16.60;56.30
71994;DHT22;59861;50.268;8.648;2023-04-01T00:55:13;16.60;56.20
71994;DHT22;59861;50.268;8.648;2023-04-01T00:57:41;16.60;56.30
71994;DHT22;59861;50.268;8.648;2023-04-01T01:00:10;16.60;56.30
71994;DHT22;59861;50.268;8.648;2023-04-01T01:02:40;16.60;56.20
71994;DHT22;59861;50.268;8.648;2023-04-01T01:05:07;16.60;56.20
71994;DHT22;59861;50.268;8.648;2023-04-01T01:07:49;16.60;56.20
71994;DHT22;59861;50.268;8.648;2023-04-01T01:10:35;16.60;56.20
71994;DHT22;59861;50.268;8.648;2023-04-01T01:15:31;16.60;56.20
71994;DHT22;59861;50.268;8.648;2023-04-01T01:28:44;16.60;56.20
71994;DHT22;59861;50.268;8.648;2023-04-01T01:36:12;16.60;56.20
71994;DHT22;59861;50.268;8.648;2023-04-01T01:38:40;16.50;56.20
71994;DHT22;59861;50.268;8.648;2023-04-01T01:41:07;16.50;56.10
71994;DHT22;59861;50.268;8.648;2023-04-01T01:43:37;16.50;56.20
71994;DHT22;59861;50.268;8.648;2023-04-01T01:46:09;16.50;56.30
71994;DHT22;59861;50.268;8.648;2023-04-01T01:48:34;16.50;56.20
71994;DHT22;59861;50.268;8.648;2023-04-01T01:51:00;16.50;56.20
71994;DHT22;59861;50.268;8.648;2023-04-01T01:53:27;16.50;56.20
71994;DHT22;59861;50.268;8.648;2023-04-01T01:55:54;16.50;56.20
71994;DHT22;59861;50.268;8.648;2023-04-01T02:00:54;16.50;57.00
71994;DHT22;59861;50.268;8.648;2023-04-01T02:03:22;16.50;56.30
71994;DHT22;59861;50.268;8.648;2023-04-01T02:05:50;16.50;56.30
71994;DHT22;59861;50.268;8.648;2023-04-01T02:08:26;16.50;56.30
71994;DHT22;59861;50.268;8.648;2023-04-01T02:10:50;16.50;56.20
71994;DHT22;59861;50.268;8.648;2023-04-01T02:13:18;16.40;56.20
71994;DHT22;59861;50.268;8.648;2023-04-01T02:15:46;16.50;56.20
71994;DHT22;59861;50.268;8.648;2023-04-01T02:18:13;16.50;56.30
71994;DHT22;59861;50.268;8.648;2023-04-01T02:20:41;16.50;56.20
71994;DHT22;59861;50.268;8.648;2023-04-01T02:23:08;16.40;56.20
71994;DHT22;59861;50.268;8.648;2023-04-01T02:25:37;16.40;56.20
71994;DHT22;59861;50.268;8.648;2023-04-01T02:28:05;16.40;56.20
71994;DHT22;59861;50.268;8.648;2023-04-01T02:30:33;16.40;56.20
71994;DHT22;59861;50.268;8.648;2023-04-01T02:33:01;16.50;56.30
71994;DHT22;59861;50.268;8.648;2023-04-01T02:35:28;16.40;56.10
71994;DHT22;59861;50.268;8.648;2023-04-01T02:37:55;16.40;56.10
71994;DHT22;59861;50.268;8.648;2023-04-01T02:40:22;16.40;56.20
71994;DHT22;59861;50.268;8.648;2023-04-01T02:42:49;16.40;56.10
71994;DHT22;59861;50.268;8.648;2023-04-01T02:45:16;16.40;56.20
71994;DHT22;59861;50.268;8.648;2023-04-01T02:47:43;16.40;56.10
71994;DHT22;59861;50.268;8.648;2023-04-01T02:52:56;16.50;56.10
71994;DHT22;59861;50.268;8.648;2023-04-01T02:55:23;16.40;56.20
71994;DHT22;59861;50.268;8.648;2023-04-01T02:57:49;16.50;56.20
71994;DHT22;59861;50.268;8.648;2023-04-01T03:00:16;16.50;56.50
71994;DHT22;59861;50.268;8.648;2023-04-01T03:02:43;16.50;56.10
71994;DHT22;59861;50.268;8.648;2023-04-01T03:05:10;16.50;56.20
71994;DHT22;59861;50.268;8.648;2023-04-01T03:07:38;16.50;56.10
71994;DHT22;59861;50.268;8.648;2023-04-01T03:10:05;16.50;56.10
71994;DHT22;59861;50.268;8.648;2023-04-01T03:12:32;16.40;56.10
71994;DHT22;59861;50.268;8.648;2023-04-01T03:14:59;16.40;56.10
71994;DHT22;59861;50.268;8.648;2023-04-01T03:17:26;16.50;56.30
71994;DHT22;59861;50.268;8.648;2023-04-01T03:19:53;16.40;56.10
71994;DHT22;59861;50.268;8.648;2023-04-01T03:22:20;16.40;56.10
71994;DHT22;59861;50.268;8.648;2023-04-01T03:24:49;16.40;56.10
71994;DHT22;59861;50.268;8.648;2023-04-01T03:27:16;16.40;56.10
71994;DHT22;59861;50.268;8.648;2023-04-01T03:29:43;16.40;56.10
71994;DHT22;59861;50.268;8.648;2023-04-01T03:32:09;16.40;56.10
71994;DHT22;59861;50.268;8.648;2023-04-01T03:34:36;16.40;56.10
71994;DHT22;59861;50.268;8.648;2023-04-01T03:37:03;16.40;56.10
71994;DHT22;59861;50.268;8.648;2023-04-01T03:39:31;16.40;56.10
71994;DHT22;59861;50.268;8.648;2023-04-01T03:41:58;16.40;56.10
71994;DHT22;59861;50.268;8.648;2023-04-01T03:44:25;16.40;56.10
71994;DHT22;59861;50.268;8.648;2023-04-01T03:46:52;16.40;56.20
71994;DHT22;59861;50.268;8.648;2023-04-01T03:49:19;16.40;56.10
71994;DHT22;59861;50.268;8.648;2023-04-01T03:51:46;16.40;56.10
71994;DHT22;59861;50.268;8.648;2023-04-01T03:54:12;16.40;56.10
71994;DHT22;59861;50.268;8.648;2023-04-01T03:56:39;16.40;56.10
71994;DHT22;59861;50.268;8.648;2023-04-01T03:59:07;16.40;56.10
71994;DHT22;59861;50.268;8.648;2023-04-01T04:01:34;16.40;56.10
71994;DHT22;59861;50.268;8.648;2023-04-01T04:04:01;16.40;56.20
71994;DHT22;59861;50.268;8.648;2023-04-01T04:06:29;16.40;56.10
71994;DHT22;59861;50.268;8.648;2023-04-01T04:08:56;16.30;56.10
71994;DHT22;59861;50.268;8.648;2023-04-01T04:11:23;16.30;56.10
71994;DHT22;59861;50.268;8.648;2023-04-01T04:13:49;16.30;56.10
71994;DHT22;59861;50.268;8.648;2023-04-01T04:16:18;16.30;56.10
71994;DHT22;59861;50.268;8.648;2023-04-01T04:18:45;16.30;56.10
71994;DHT22;59861;50.268;8.648;2023-04-01T04:21:12;16.30;56.10
71994;DHT22;59861;50.268;8.648;2023-04-01T04:23:40;16.30;56.10
71994;DHT22;59861;50.268;8.648;2023-04-01T04:26:07;16.30;56.00
71994;DHT22;59861;50.268;8.648;2023-04-01T04:28:35;16.30;56.10
71994;DHT22;59861;50.268;8.648;2023-04-01T04:31:02;16.30;56.10
71994;DHT22;59861;50.268;8.648;2023-04-01T04:33:30;16.30;56.10
71994;DHT22;59861;50.268;8.648;2023-04-01T04:35:57;16.30;56.10
71994;DHT22;59861;50.268;8.648;2023-04-01T04:38:25;16.30;56.10
71994;DHT22;59861;50.268;8.648;2023-04-01T04:40:52;16.30;56.10
71994;DHT22;59861;50.268;8.648;2023-04-01T04:43:19;16.30;56.20
71994;DHT22;59861;50.268;8.648;2023-04-01T04:45:46;16.30;56.10
71994;DHT22;59861;50.268;8.648;2023-04-01T04:48:13;16.30;56.10
71994;DHT22;59861;50.268;8.648;2023-04-01T04:50:42;16.30;56.10
71994;DHT22;59861;50.268;8.648;2023-04-01T04:53:09;16.20;56.00
71994;DHT22;59861;50.268;8.648;2023-04-01T04:55:36;16.30;56.10
71994;DHT22;59861;50.268;8.648;2023-04-01T04:58:03;16.20;56.10
71994;DHT22;59861;50.268;8.648;2023-04-01T05:00:30;16.20;56.10
71994;DHT22;59861;50.268;8.648;2023-04-01T05:02:56;16.20;56.10
71994;DHT22;59861;50.268;8.648;2023-04-01T05:05:23;16.20;56.00
71994;DHT22;59861;50.268;8.648;2023-04-01T05:07:50;16.20;56.10
71994;DHT22;59861;50.268;8.648;2023-04-01T05:10:17;16.20;56.10
71994;DHT22;59861;50.268;8.648;2023-04-01T05:12:44;16.20;56.10
71994;DHT22;59861;50.268;8.648;2023-04-01T05:15:11;16.20;56.10
71994;DHT22;59861;50.268;8.648;2023-04-01T05:17:38;16.20;56.10
71994;DHT22;59861;50.268;8.648;2023-04-01T05:20:05;16.20;56.10
71994;DHT22;59861;50.268;8.648;2023-04-01T05:22:32;16.20;56.10
71994;DHT22;59861;50.268;8.648;2023-04-01T05:24:59;16.20;56.10
71994;DHT22;59861;50.268;8.648;2023-04-01T05:27:25;16.20;56.10
71994;DHT22;59861;50.268;8.648;2023-04-01T05:29:52;16.20;56.10
71994;DHT22;59861;50.268;8.648;2023-04-01T05:32:19;16.20;56.10
71994;DHT22;59861;50.268;8.648;2023-04-01T05:34:46;16.20;56.00
71994;DHT22;59861;50.268;8.648;2023-04-01T05:37:13;16.20;56.10
71994;DHT22;59861;50.268;8.648;2023-04-01T05:39:39;16.20;56.00
71994;DHT22;59861;50.268;8.648;2023-04-01T05:42:06;16.20;56.10
71994;DHT22;59861;50.268;8.648;2023-04-01T05:44:33;16.20;56.00
71994;DHT22;59861;50.268;8.648;2023-04-01T05:47:00;16.20;56.20
71994;DHT22;59861;50.268;8.648;2023-04-01T05:49:27;16.20;56.20
71994;DHT22;59861;50.268;8.648;2023-04-01T05:51:54;16.20;56.20
71994;DHT22;59861;50.268;8.648;2023-04-01T05:54:21;16.10;56.40
71994;DHT22;59861;50.268;8.648;2023-04-01T05:56:48;16.10;56.70
71994;DHT22;59861;50.268;8.648;2023-04-01T05:59:15;16.10;57.00
71994;DHT22;59861;50.268;8.648;2023-04-01T06:01:42;16.10;57.10
71994;DHT22;59861;50.268;8.648;2023-04-01T06:04:13;16.10;57.20
71994;DHT22;59861;50.268;8.648;2023-04-01T06:06:37;16.10;57.30
71994;DHT22;59861;50.268;8.648;2023-04-01T06:09:19;16.10;57.30
71994;DHT22;59861;50.268;8.648;2023-04-01T06:14:19;16.10;57.30
71994;DHT22;59861;50.268;8.648;2023-04-01T06:16:51;16.10;57.40
71994;DHT22;59861;50.268;8.648;2023-04-01T06:19:19;16.10;58.10
71994;DHT22;59861;50.268;8.648;2023-04-01T06:21:51;16.10;57.40
71994;DHT22;59861;50.268;8.648;2023-04-01T06:26:53;16.10;57.50
71994;DHT22;59861;50.268;8.648;2023-04-01T06:29:27;16.10;57.50
71994;DHT22;59861;50.268;8.648;2023-04-01T06:31:57;16.20;57.60
71994;DHT22;59861;50.268;8.648;2023-04-01T06:39:22;15.30;58.20
71994;DHT22;59861;50.268;8.648;2023-04-01T06:44:22;14.50;59.40
71994;DHT22;59861;50.268;8.648;2023-04-01T06:46:47;14.20;61.20
71994;DHT22;59861;50.268;8.648;2023-04-01T06:54:16;14.30;61.80
71994;DHT22;59861;50.268;8.648;2023-04-01T06:56:42;14.70;61.00
71994;DHT22;59861;50.268;8.648;2023-04-01T06:59:20;15.00;60.00
71994;DHT22;59861;50.268;8.648;2023-04-01T07:01:47;15.20;59.50
71994;DHT22;59861;50.268;8.648;2023-04-01T07:04:16;15.40;59.10
71994;DHT22;59861;50.268;8.648;2023-04-01T07:06:45;15.60;58.90
71994;DHT22;59861;50.268;8.648;2023-04-01T07:09:18;15.70;58.70
71994;DHT22;59861;50.268;8.648;2023-04-01T07:11:44;15.70;58.60
71994;DHT22;59861;50.268;8.648;2023-04-01T07:16:54;15.70;58.70
71994;DHT22;59861;50.268;8.648;2023-04-01T07:19:22;15.70;58.80
71994;DHT22;59861;50.268;8.648;2023-04-01T07:21:56;15.80;59.10
71994;DHT22;59861;50.268;8.648;2023-04-01T07:24:34;15.80;59.30
71994;DHT22;59861;50.268;8.648;2023-04-01T07:27:20;15.80;59.40
71994;DHT22;59861;50.268;8.648;2023-04-01T07:29:47;15.90;59.60
71994;DHT22;59861;50.268;8.648;2023-04-01T07:39:57;16.00;59.90
71994;DHT22;59861;50.268;8.648;2023-04-01T07:47:29;16.00;60.20
71994;DHT22;59861;50.268;8.648;2023-04-01T07:49:57;16.10;61.10
71994;DHT22;59861;50.268;8.648;2023-04-01T07:52:24;16.20;60.30
71994;DHT22;59861;50.268;8.648;2023-04-01T07:54:53;16.10;60.20
